Terminal Aerodrome Forecast
Issued by NWS San Angelo, TX

Home | Current Version | Previous Version | Text Only | Print | Product List | Glossary On
Versions: 1 2 3 4 5 6 7 8 9 10 11 12 13 14 15
000
FTUS44 KSJT 302300
TAFSJT
TAF
KSJT 302323Z 3100/3124 19009KT P6SM FEW100
     FM310800 35010KT P6SM VCSH SCT030 BKN100
     FM311100 01011G17KT P6SM BKN020
     FM311600 02012G18KT P6SM SCT060=

USA.gov is the U.S. government's official web portal to all federal, state and local government web resources and services.